»·PEaware :: SWA1788 KSLC-KLAS

SWA1788 :: KSLC-KLAS

FLIGHT INFORMATION

Flight Status: Arrived
Operator:
Southwest Airlines
More flights by this operator :: More flights under this callsign
Pilot: Matthew M. (5545)
Aircraft: BOEING 737-800
(B738)
More flights by this aircraft type
Origin: KSLC Salt Lake City Intl
United States
Destination: KLAS McCarran Intl
United States
More flights between these airports :: More routes between these airports
Route: ZIONZ1 EHK KSINO SITEE3
File this flight plan on PilotEdge
Remarks:
Altitude:
(Current/Filed)
32,000ft
Speed:
(Current/Filed)
480kts
Departed: 01-Oct-18 09:24 PM
Arrived: 01-Oct-18 10:27 PM
Distance/Time
Traveled:
319nm/1:02
Distance/Time
To Go:
Arrived

Flight Plot

Page will automatically refresh every two minutes.

Flight plan parsing failed; only flown route is shown


Map Options




Map Legend


Flown Route
Filed Route
Departure Airport
Arrival Airport
Navaid (VOR, NDB)
Fix

Horizontal Profiles

Position Reports

Time Latitude Longitude Heading Altitude Ground
Speed
01-Oct-18 21:11 40.785046 -111.977434 286 4235ft 0kts
01-Oct-18 21:12 40.785046 -111.977434 286 4235ft 0kts
01-Oct-18 21:13 40.785046 -111.977434 286 4235ft 0kts
01-Oct-18 21:14 40.785046 -111.977434 286 4235ft 0kts
01-Oct-18 21:15 40.785046 -111.977434 286 4235ft 0kts
01-Oct-18 21:16 40.785046 -111.977434 286 4235ft 0kts
01-Oct-18 21:17 40.785046 -111.977433 286 4235ft 0kts
01-Oct-18 21:18 40.784982 -111.977155 286 4235ft 2kts
01-Oct-18 21:19 40.784637 -111.976743 356 4235ft 0kts
01-Oct-18 21:20 40.784608 -111.976740 353 4235ft 0kts
01-Oct-18 21:21 40.785430 -111.976567 359 4235ft 13kts
01-Oct-18 21:22 40.791512 -111.977257 354 4235ft 25kts
01-Oct-18 21:23 40.798542 -111.978073 355 4235ft 25kts
01-Oct-18 21:24 40.805455 -111.978418 354 4235ft 20kts
01-Oct-18 21:25 40.807392 -111.977699 102 4235ft 12kts
01-Oct-18 21:26 40.793380 -111.975274 174 4235ft 158kts
01-Oct-18 21:27 40.739402 -111.968821 173 6431ft 232kts
01-Oct-18 21:28 40.668931 -111.964704 177 9353ft 276kts
01-Oct-18 21:29 40.588748 -111.959750 178 12261ft 311kts
01-Oct-18 21:30 40.503215 -111.954516 179 15550ft 321kts
01-Oct-18 21:31 40.428464 -111.949842 179 18062ft 331kts
01-Oct-18 21:32 40.319332 -111.942251 180 21232ft 346kts
01-Oct-18 21:33 40.239066 -111.942407 190 23262ft 351kts
01-Oct-18 21:34 40.124403 -111.961223 191 25835ft 364kts
01-Oct-18 21:35 40.040114 -111.973642 191 27505ft 373kts
01-Oct-18 21:36 39.936009 -111.988875 191 29331ft 383kts
01-Oct-18 21:37 39.834236 -112.003640 192 31391ft 380kts
01-Oct-18 21:38 39.729987 -112.018772 192 32067ft 374kts
01-Oct-18 21:39 39.626907 -112.033765 192 32060ft 374kts
01-Oct-18 21:40 39.523295 -112.048816 192 32076ft 385kts
01-Oct-18 21:41 39.412056 -112.064944 192 32071ft 417kts
01-Oct-18 21:42 39.296589 -112.081277 192 32061ft 420kts
01-Oct-18 21:43 39.180529 -112.097661 192 32066ft 421kts
01-Oct-18 21:44 39.074414 -112.147916 212 32081ft 407kts
01-Oct-18 21:45 38.976406 -112.219274 212 32088ft 407kts
01-Oct-18 21:46 38.884645 -112.286010 211 32090ft 411kts
01-Oct-18 21:47 38.785051 -112.358134 211 32092ft 411kts
01-Oct-18 21:48 38.685746 -112.429824 210 32089ft 412kts
01-Oct-18 21:49 38.586141 -112.501523 211 32089ft 412kts
01-Oct-18 21:50 38.486598 -112.572961 210 32086ft 411kts
01-Oct-18 21:51 38.387209 -112.644060 211 32091ft 412kts
01-Oct-18 21:52 38.287958 -112.714724 210 32090ft 411kts
01-Oct-18 21:53 38.188136 -112.785592 210 32093ft 411kts
01-Oct-18 21:54 38.088565 -112.856059 210 32090ft 412kts
01-Oct-18 21:55 37.989205 -112.926234 210 32109ft 411kts
01-Oct-18 21:56 37.891441 -112.995060 210 32136ft 411kts
01-Oct-18 21:57 37.794213 -113.063329 211 32137ft 411kts
01-Oct-18 21:58 37.699447 -113.143098 215 30295ft 412kts
01-Oct-18 21:59 37.609046 -113.220146 214 28687ft 387kts
01-Oct-18 22:00 37.518917 -113.296743 214 27529ft 395kts
01-Oct-18 22:01 37.428305 -113.373524 214 26437ft 399kts
01-Oct-18 22:02 37.336306 -113.451237 214 25350ft 409kts
01-Oct-18 22:03 37.248144 -113.525469 214 24081ft 367kts
01-Oct-18 22:04 37.174650 -113.587185 213 23064ft 364kts
01-Oct-18 22:05 37.102943 -113.647264 213 22088ft 360kts
01-Oct-18 22:06 37.031402 -113.707016 211 21121ft 359kts
01-Oct-18 22:07 36.960345 -113.766230 210 20197ft 359kts
01-Oct-18 22:08 36.892177 -113.822903 210 19351ft 356kts
01-Oct-18 22:09 36.822711 -113.880540 210 18480ft 354kts
01-Oct-18 22:10 36.756062 -113.935728 210 17588ft 351kts
01-Oct-18 22:11 36.696019 -113.985382 210 16805ft 335kts
01-Oct-18 22:12 36.637932 -114.033291 210 16060ft 333kts
01-Oct-18 22:13 36.579684 -114.083592 221 15916ft 329kts
01-Oct-18 22:14 36.528569 -114.176267 234 15094ft 325kts
01-Oct-18 22:15 36.480572 -114.270327 234 13996ft 321kts
01-Oct-18 22:16 36.433091 -114.362944 235 12959ft 317kts
01-Oct-18 22:17 36.386055 -114.454409 235 11941ft 313kts
01-Oct-18 22:18 36.339604 -114.544679 235 10941ft 309kts
01-Oct-18 22:19 36.292166 -114.631685 221 10024ft 298kts
01-Oct-18 22:20 36.222768 -114.669699 195 9399ft 274kts
01-Oct-18 22:21 36.151840 -114.697114 195 7784ft 264kts
01-Oct-18 22:22 36.087967 -114.737303 229 6593ft 266kts
01-Oct-18 22:23 36.073509 -114.823261 267 6508ft 261kts
01-Oct-18 22:24 36.073679 -114.905616 267 5712ft 227kts
01-Oct-18 22:25 36.073730 -114.968386 267 4677ft 189kts
01-Oct-18 22:26 36.073731 -115.021029 266 3815ft 168kts
01-Oct-18 22:27 36.073886 -115.066844 266 3030ft 157kts
01-Oct-18 22:28 36.073717 -115.114037 266 2369ft 158kts
01-Oct-18 22:29 36.073942 -115.148732 293 2122ft 38kts
01-Oct-18 22:30 36.074804 -115.150680 303 2122ft 0kts
01-Oct-18 22:31 36.076447 -115.152003 334 2122ft 23kts
01-Oct-18 22:32 36.079488 -115.147747 21 2122ft 18kts
01-Oct-18 22:33 36.079910 -115.147060 62 2122ft 0kts
01-Oct-18 22:34 36.079910 -115.147060 62 2122ft 0kts
01-Oct-18 22:35 36.079910 -115.147060 62 2122ft 0kts

Navigation Log

Ident Type
Flight plan parsing failed, navigation log unavailable